Time;durP1;ratioP1;P1;durP2;ratioP2;P2;SDS_P1;SDS_P2;PMS_P1;PMS_P2;Temp;Humidity;BMP_temperature;BMP_pressure;BME280_temperature;BME280_humidity;BME280_pressure;Samples;Min_cycle;Max_cycle;Signal;HPM_P1;HPM_P2
2021/07/25 00:00:33;;;;;;;13.88;9.02;;;;;;;17.24;99.46;95634.50;5030150;28;20403;-79
2021/07/25 00:02:59;;;;;;;14.98;8.15;;;;;;;17.34;99.04;95627.69;5038466;28;20041;-82
2021/07/25 00:05:25;;;;;;;15.88;7.78;;;;;;;17.39;98.29;95614.53;5054597;28;20461;-81
2021/07/25 00:07:51;;;;;;;11.18;7.93;;;;;;;17.38;97.64;95609.47;5050121;28;20036;-81
2021/07/25 00:10:17;;;;;;;14.90;8.02;;;;;;;17.38;98.28;95596.97;5029741;28;20025;-77
2021/07/25 00:12:42;;;;;;;11.55;7.88;;;;;;;17.43;98.23;95596.31;5043193;28;20410;-80
2021/07/25 00:15:08;;;;;;;12.80;7.50;;;;;;;17.48;98.67;95606.31;5046120;28;20040;-80
2021/07/25 00:17:34;;;;;;;10.40;7.22;;;;;;;17.51;97.76;95614.66;5020886;28;20096;-81
2021/07/25 00:20:01;;;;;;;11.73;7.15;;;;;;;17.53;97.97;95609.94;5026765;28;20087;-81
2021/07/25 00:22:27;;;;;;;9.43;7.15;;;;;;;17.46;98.33;95608.38;5027126;28;20037;-80
2021/07/25 00:25:07;;;;;;;10.43;8.05;;;;;;;17.50;97.48;95607.69;5044103;28;20025;-82
2021/07/25 00:27:33;;;;;;;13.40;8.27;;;;;;;17.33;97.61;95596.78;5055079;28;20773;-78
2021/07/25 00:29:59;;;;;;;13.57;8.05;;;;;;;17.30;97.58;95596.41;5050832;28;20043;-80
2021/07/25 00:32:25;;;;;;;12.60;7.13;;;;;;;17.41;97.70;95609.03;5051394;28;20414;-81
2021/07/25 00:34:52;;;;;;;11.27;7.78;;;;;;;17.46;97.38;95611.03;5037039;28;20029;-81
2021/07/25 00:37:18;;;;;;;12.85;7.30;;;;;;;17.43;96.30;95613.06;5035470;28;20438;-79
2021/07/25 00:39:43;;;;;;;11.93;7.65;;;;;;;17.41;95.89;95622.31;5040910;28;20092;-81
2021/07/25 00:42:09;;;;;;;10.77;6.78;;;;;;;17.37;95.08;95610.47;5055584;28;20041;-82
2021/07/25 00:44:35;;;;;;;10.98;6.90;;;;;;;17.41;94.58;95624.97;5053262;28;20025;-77
2021/07/25 00:47:02;;;;;;;9.65;7.10;;;;;;;17.51;93.47;95633.28;5047684;28;20037;-77
2021/07/25 00:49:28;;;;;;;11.10;5.90;;;;;;;17.48;94.61;95646.19;5043547;28;20025;-82
2021/07/25 00:51:54;;;;;;;11.40;7.13;;;;;;;17.50;93.47;95658.22;5038801;28;20029;-80
2021/07/25 00:54:21;;;;;;;11.73;6.85;;;;;;;17.50;93.51;95666.19;5057549;28;20100;-77
2021/07/25 00:56:47;;;;;;;10.35;6.22;;;;;;;17.45;93.80;95666.03;5017103;28;20064;-81
2021/07/25 00:59:13;;;;;;;10.98;6.38;;;;;;;17.47;93.87;95666.66;5029981;28;20075;-80
2021/07/25 01:01:40;;;;;;;10.75;6.00;;;;;;;17.46;93.92;95672.16;5035281;28;20042;-79
2021/07/25 01:04:44;;;;;;;11.25;7.03;;;;;;;17.46;94.36;95675.63;5052924;28;20022;-81
2021/07/25 01:07:17;;;;;;;12.25;6.50;;;;;;;17.48;94.63;95676.25;5047554;28;20555;-79
2021/07/25 01:09:49;;;;;;;;;;;;;;;17.39;95.60;95685.50;5044812;28;20061;-80
2021/07/25 01:12:23;;;;;;;12.32;7.10;;;;;;;17.47;95.30;95687.91;5041592;28;20336;-77
2021/07/25 01:14:52;;;;;;;11.30;7.65;;;;;;;17.42;96.26;95685.06;5050221;28;20067;-80
2021/07/25 01:17:30;;;;;;;13.38;7.88;;;;;;;17.34;98.31;95686.16;5058307;28;20029;-79
2021/07/25 01:19:57;;;;;;;12.80;8.00;;;;;;;17.32;98.01;95668.78;5019896;28;20029;-79
2021/07/25 01:22:24;;;;;;;12.23;7.85;;;;;;;17.29;98.76;95666.56;5032122;28;20041;-81
2021/07/25 01:24:50;;;;;;;13.13;7.72;;;;;;;17.17;99.32;95656.63;5028416;28;20037;-81
2021/07/25 01:27:29;;;;;;;13.02;7.90;;;;;;;17.05;100.00;95662.81;5045067;28;20037;-81
2021/07/25 01:29:58;;;;;;;12.00;8.02;;;;;;;17.19;100.00;95669.69;5049895;28;20048;-80
2021/07/25 01:32:26;;;;;;;12.15;8.32;;;;;;;17.07;100.00;95658.94;5026610;28;20044;-81
2021/07/25 01:34:57;;;;;;;12.45;7.60;;;;;;;17.00;100.00;95659.97;5042552;28;20065;-80
2021/07/25 01:37:26;;;;;;;9.75;7.25;;;;;;;16.95;100.00;95656.13;5038362;28;20111;-81
2021/07/25 01:39:52;;;;;;;13.02;7.50;;;;;;;16.91;100.00;95662.09;5041118;28;20025;-81
2021/07/25 01:42:31;;;;;;;12.93;8.15;;;;;;;16.86;100.00;95659.25;5015172;28;20091;-82
2021/07/25 01:44:59;;;;;;;9.93;7.00;;;;;;;16.97;100.00;95666.56;5018519;28;20031;-81
2021/07/25 01:47:25;;;;;;;10.20;7.05;;;;;;;17.09;100.00;95667.50;5057551;28;20036;-77
2021/07/25 01:49:51;;;;;;;13.85;8.13;;;;;;;17.06;100.00;95659.94;5029976;28;20072;-77
2021/07/25 01:52:16;;;;;;;14.38;7.70;;;;;;;17.12;100.00;95668.91;5058724;28;20033;-80
2021/07/25 01:54:43;;;;;;;10.82;7.75;;;;;;;17.14;100.00;95674.84;5025352;28;20120;-81
2021/07/25 01:57:10;;;;;;;10.77;7.70;;;;;;;17.15;100.00;95669.31;5029524;28;20075;-80
2021/07/25 01:59:35;;;;;;;9.27;6.78;;;;;;;17.15;100.00;95669.31;5048567;28;20095;-81
2021/07/25 02:02:01;;;;;;;10.77;7.55;;;;;;;17.13;100.00;95666.03;5056919;28;20032;-79
2021/07/25 02:04:27;;;;;;;11.10;8.07;;;;;;;17.12;100.00;95675.03;5055536;28;20502;-80
2021/07/25 02:06:53;;;;;;;11.35;7.82;;;;;;;17.09;100.00;95662.19;5050727;28;20461;-80
2021/07/25 02:09:18;;;;;;;11.52;8.20;;;;;;;17.07;100.00;95650.13;5038878;28;20029;-80
2021/07/25 02:11:44;;;;;;;13.25;8.48;;;;;;;17.03;100.00;95646.28;5046200;28;20657;-81
2021/07/25 02:14:10;;;;;;;10.73;7.18;;;;;;;17.02;100.00;95647.31;5047550;28;20139;-80
2021/07/25 02:16:36;;;;;;;12.32;8.27;;;;;;;16.92;100.00;95653.09;5047037;28;20572;-79
2021/07/25 02:19:02;;;;;;;12.48;7.88;;;;;;;16.94;100.00;95651.84;5049919;28;20021;-79
2021/07/25 02:21:37;;;;;;;13.13;8.13;;;;;;;16.92;100.00;95653.09;5052653;28;20115;-80
2021/07/25 02:24:03;;;;;;;12.40;8.20;;;;;;;16.88;100.00;95650.03;5021493;28;20060;-81
2021/07/25 02:26:29;;;;;;;13.13;9.05;;;;;;;16.70;100.00;95634.81;5015943;28;20034;-80
2021/07/25 02:28:55;;;;;;;13.57;8.45;;;;;;;16.64;100.00;95627.69;5044961;28;20033;-81
2021/07/25 02:31:20;;;;;;;11.98;8.00;;;;;;;16.53;100.00;95614.25;5045339;28;20026;-79
2021/07/25 02:33:46;;;;;;;12.40;7.70;;;;;;;16.56;100.00;95619.94;5057596;28;20038;-81
2021/07/25 02:36:13;;;;;;;9.77;7.60;;;;;;;16.49;100.00;95619.16;5039143;28;20028;-81
2021/07/25 02:38:38;;;;;;;10.63;7.78;;;;;;;16.56;100.00;95619.94;5032144;28;20073;-80
2021/07/25 02:41:04;;;;;;;11.50;8.30;;;;;;;16.59;100.00;95624.81;5046070;28;20072;-79
2021/07/25 02:43:30;;;;;;;11.15;8.07;;;;;;;16.55;100.00;95614.84;5041207;28;20530;-80
2021/07/25 02:45:56;;;;;;;12.45;8.10;;;;;;;16.54;100.00;95614.03;5033832;28;20397;-81
2021/07/25 02:48:22;;;;;;;12.55;8.07;;;;;;;16.54;100.00;95629.97;5049218;28;20041;-81
2021/07/25 02:50:47;;;;;;;16.27;8.45;;;;;;;16.63;100.00;95628.72;5035992;28;20036;-80
2021/07/25 02:53:13;;;;;;;11.43;8.00;;;;;;;16.71;100.00;95641.72;5046431;28;20034;-78
2021/07/25 02:55:39;;;;;;;12.50;7.25;;;;;;;16.72;100.00;95642.53;5056260;28;20025;-77
2021/07/25 02:58:05;;;;;;;13.35;7.70;;;;;;;16.76;100.00;95641.13;5070931;28;20028;-76
2021/07/25 03:00:30;;;;;;;9.30;6.68;;;;;;;16.82;100.00;95636.81;5055351;28;20053;-81
2021/07/25 03:02:56;;;;;;;11.98;7.60;;;;;;;16.86;100.00;95632.69;5046749;28;20037;-77
2021/07/25 03:05:23;;;;;;;12.90;7.25;;;;;;;16.77;100.00;95633.97;5045631;28;20255;-78
2021/07/25 03:07:49;;;;;;;12.68;7.82;;;;;;;16.77;100.00;95641.91;5031796;28;20101;-80
2021/07/25 03:10:14;;;;;;;11.82;8.20;;;;;;;16.80;100.00;95642.34;5056457;28;20037;-77
2021/07/25 03:12:40;;;;;;;13.10;7.22;;;;;;;16.81;100.00;95645.81;5032614;28;20048;-78
2021/07/25 03:15:06;;;;;;;11.60;7.50;;;;;;;16.71;100.00;95656.84;5045308;28;20029;-77
2021/07/25 03:17:32;;;;;;;10.65;7.40;;;;;;;16.76;100.00;95654.38;5025438;28;20079;-77
2021/07/25 03:19:57;;;;;;;11.30;7.30;;;;;;;16.76;100.00;95650.91;5047544;28;20021;-81
2021/07/25 03:22:23;;;;;;;12.43;8.65;;;;;;;16.71;100.00;95655.00;5029294;28;20123;-80
2021/07/25 03:24:49;;;;;;;12.60;7.75;;;;;;;16.69;100.00;95659.69;5028957;28;20029;-81
2021/07/25 03:27:15;;;;;;;12.18;7.53;;;;;;;16.71;100.00;95647.03;5017170;28;20124;-80
2021/07/25 03:29:40;;;;;;;10.57;7.07;;;;;;;16.75;100.00;95651.97;5053057;28;20033;-81
2021/07/25 03:32:06;;;;;;;12.00;7.47;;;;;;;16.82;100.00;95661.50;5058243;28;20087;-81
2021/07/25 03:34:33;;;;;;;12.30;8.20;;;;;;;16.82;100.00;95672.13;5019410;28;20378;-81
2021/07/25 03:37:02;;;;;;;11.10;8.40;;;;;;;16.75;100.00;95665.22;5050975;28;20036;-80
2021/07/25 03:39:29;;;;;;;12.63;8.20;;;;;;;16.73;100.00;95665.41;5020189;28;20096;-81
2021/07/25 03:41:55;;;;;;;13.90;8.63;;;;;;;16.69;100.00;95654.38;5032047;28;20025;-79
2021/07/25 03:44:21;;;;;;;14.20;8.88;;;;;;;16.68;100.00;95660.72;5057791;28;21135;-81
2021/07/25 03:46:47;;;;;;;10.75;7.57;;;;;;;16.68;100.00;95663.38;5024606;28;21181;-80
2021/07/25 03:49:13;;;;;;;13.20;7.72;;;;;;;16.59;100.00;95651.38;5034244;28;20099;-80
2021/07/25 03:51:39;;;;;;;12.48;7.82;;;;;;;16.43;100.00;95659.81;5053554;28;20061;-80
2021/07/25 03:54:05;;;;;;;12.57;8.15;;;;;;;16.45;100.00;95650.63;5045070;28;20036;-81
2021/07/25 03:56:33;;;;;;;10.85;8.18;;;;;;;16.49;100.00;95661.63;5046950;28;20029;-81
2021/07/25 03:58:58;;;;;;;12.77;7.57;;;;;;;16.42;100.00;95664.31;5051084;28;20043;-80
2021/07/25 04:01:24;;;;;;;11.57;7.07;;;;;;;16.40;100.00;95663.72;5035141;28;20104;-81
2021/07/25 04:03:50;;;;;;;10.65;7.50;;;;;;;16.40;100.00;95666.38;5012426;28;20036;-79
2021/07/25 04:06:17;;;;;;;10.88;7.80;;;;;;;16.49;100.00;95673.06;5043224;28;20120;-81
2021/07/25 04:08:43;;;;;;;14.75;8.15;;;;;;;16.62;100.00;95682.81;5047945;28;20116;-78
2021/07/25 04:11:08;;;;;;;19.42;9.27;;;;;;;16.60;100.00;95676.91;5042024;28;20038;-78
2021/07/25 04:13:34;;;;;;;20.02;16.73;;;;;;;16.63;100.00;95680.97;5034876;28;20057;-80
2021/07/25 04:16:00;;;;;;;20.38;14.05;;;;;;;16.70;100.00;95682.59;5042517;28;20048;-80
2021/07/25 04:18:26;;;;;;;14.73;12.10;;;;;;;16.71;100.00;95681.56;5032907;28;20107;-76
2021/07/25 04:20:52;;;;;;;12.65;8.77;;;;;;;16.68;100.00;95671.34;5037707;28;20017;-79
2021/07/25 04:23:17;;;;;;;12.93;8.32;;;;;;;16.71;100.00;95673.59;5038744;28;20084;-80
2021/07/25 04:25:43;;;;;;;10.23;7.88;;;;;;;16.77;100.00;95674.63;5065861;28;20029;-77
2021/07/25 04:28:10;;;;;;;12.82;7.65;;;;;;;16.81;100.00;95682.97;5045575;28;20037;-79
2021/07/25 04:30:36;;;;;;;13.32;8.55;;;;;;;16.82;100.00;95700.53;5062293;28;20112;-76
2021/07/25 04:33:03;;;;;;;11.95;8.55;;;;;;;16.86;100.00;95702.53;5046830;28;20017;-76
2021/07/25 04:35:31;;;;;;;11.80;7.28;;;;;;;16.94;100.00;95704.16;5060813;28;20033;-76
2021/07/25 04:37:57;;;;;;;16.25;9.70;;;;;;;17.00;100.00;95713.94;5048330;28;20096;-76
2021/07/25 04:40:26;;;;;;;11.60;8.23;;;;;;;17.05;100.00;95711.47;5027753;28;20128;-79
2021/07/25 04:42:54;;;;;;;14.95;9.30;;;;;;;17.03;100.00;95700.22;5057058;28;20060;-76
2021/07/25 04:45:42;;;;;;;12.98;7.72;;;;;;;16.96;100.00;95694.94;5061849;28;20484;-78
2021/07/25 04:48:08;;;;;;;12.45;8.40;;;;;;;16.92;100.00;95700.91;5059222;28;20663;-76
2021/07/25 04:50:37;;;;;;;12.20;8.75;;;;;;;16.83;100.00;95699.50;5034643;28;20017;-80
2021/07/25 04:53:05;;;;;;;13.10;8.80;;;;;;;16.72;100.00;95704.41;5045634;28;20041;-80
2021/07/25 04:55:35;;;;;;;11.00;7.90;;;;;;;16.83;100.00;95699.50;5048874;28;20060;-79
2021/07/25 04:58:04;;;;;;;12.18;8.68;;;;;;;16.75;100.00;95694.44;5054122;28;20033;-79
2021/07/25 05:00:31;;;;;;;14.30;8.13;;;;;;;16.73;100.00;95698.09;5037910;28;20108;-80
2021/07/25 05:03:03;;;;;;;11.57;8.00;;;;;;;16.72;100.00;95704.41;5053560;28;20028;-79
2021/07/25 05:05:29;;;;;;;12.38;7.75;;;;;;;16.71;100.00;95707.28;5024859;28;20125;-80
2021/07/25 05:07:59;;;;;;;14.02;9.63;;;;;;;16.64;100.00;95709.97;5033952;28;20013;-79
2021/07/25 05:10:25;;;;;;;14.02;9.27;;;;;;;16.53;100.00;95710.59;5055635;28;20033;-76
2021/07/25 05:13:11;;;;;;;17.92;9.82;;;;;;;16.49;100.00;95718.16;5061674;28;20036;-78
2021/07/25 05:15:41;;;;;;;12.05;8.90;;;;;;;16.60;100.00;95722.03;5036927;28;20037;-79
2021/07/25 05:18:08;;;;;;;12.05;8.48;;;;;;;16.49;100.00;95723.47;5059476;28;20150;-80
2021/07/25 05:21:08;;;;;;;12.25;9.02;;;;;;;16.60;100.00;95724.69;5044455;28;20040;-78
2021/07/25 05:23:49;;;;;;;14.80;9.75;;;;;;;16.72;100.00;95727.50;5045021;28;20030;-77
2021/07/25 05:26:16;;;;;;;13.75;8.68;;;;;;;16.85;100.00;95729.34;5047071;28;20060;-75
2021/07/25 05:28:44;;;;;;;13.43;8.90;;;;;;;16.92;100.00;95738.09;5040251;28;20052;-78
2021/07/25 05:31:11;;;;;;;14.77;9.35;;;;;;;17.06;100.00;95742.31;5038283;28;20029;-79
2021/07/25 05:33:37;;;;;;;13.88;9.10;;;;;;;17.15;100.00;95730.41;5050176;28;20072;-79
2021/07/25 05:36:03;;;;;;;13.35;9.15;;;;;;;17.25;100.00;95727.28;5049224;28;20116;-80
2021/07/25 05:38:28;;;;;;;17.33;8.18;;;;;;;17.34;100.00;95731.34;5047791;28;20021;-79
2021/07/25 05:40:54;;;;;;;12.20;8.00;;;;;;;17.38;100.00;95726.41;5051658;28;20037;-77
2021/07/25 05:43:20;;;;;;;13.48;9.02;;;;;;;17.47;100.00;95730.44;5055631;28;20059;-78
2021/07/25 05:45:45;;;;;;;15.05;8.43;;;;;;;17.49;100.00;95725.72;5034539;28;20041;-79
2021/07/25 05:48:11;;;;;;;16.70;8.23;;;;;;;17.49;100.00;95717.72;5052359;28;20456;-77
2021/07/25 05:50:37;;;;;;;10.88;8.13;;;;;;;17.53;100.00;95728.75;5050742;28;20025;-79
2021/07/25 05:53:04;;;;;;;11.93;8.35;;;;;;;17.56;100.00;95726.47;5007305;28;20489;-80
2021/07/25 05:55:32;;;;;;;12.27;7.90;;;;;;;17.65;100.00;95730.50;5040233;28;20797;-79
2021/07/25 05:57:59;;;;;;;12.43;7.80;;;;;;;17.71;100.00;95728.03;5043041;28;20033;-80
2021/07/25 06:00:24;;;;;;;12.48;8.65;;;;;;;17.76;100.00;95734.34;5040364;28;20960;-80
2021/07/25 06:02:56;;;;;;;12.25;8.00;;;;;;;17.70;100.00;95734.34;5060893;28;20065;-79
2021/07/25 06:05:29;;;;;;;11.80;8.35;;;;;;;17.79;100.00;95744.56;5052452;28;20068;-79
2021/07/25 06:07:56;;;;;;;;;;;;;;;17.79;100.00;95746.41;5040714;28;20037;-79
2021/07/25 06:10:24;;;;;;;11.52;7.70;;;;;;;17.89;100.00;95747.53;5025597;28;19909;-76
2021/07/25 06:12:51;;;;;;;13.02;8.68;;;;;;;18.06;100.00;95752.31;5038940;28;20042;-77
2021/07/25 06:15:18;;;;;;;15.18;8.88;;;;;;;18.23;100.00;95749.91;5041725;28;20032;-78
2021/07/25 06:17:44;;;;;;;12.93;8.00;;;;;;;18.08;100.00;95753.75;5030762;28;20116;-80
2021/07/25 06:20:10;;;;;;;11.50;8.23;;;;;;;18.22;100.00;95751.78;5052498;28;20108;-80
2021/07/25 06:22:44;;;;;;;10.63;7.80;;;;;;;18.18;100.00;95749.78;5034312;28;20033;-79
2021/07/25 06:25:13;;;;;;;12.60;8.57;;;;;;;18.08;98.93;95748.41;5044069;28;20528;-80
2021/07/25 06:27:39;;;;;;;12.52;8.10;;;;;;;18.14;98.88;95750.22;5052541;28;20033;-78
2021/07/25 06:30:08;;;;;;;11.27;8.38;;;;;;;18.05;98.74;95743.53;5049777;28;20025;-80
2021/07/25 06:32:57;;;;;;;10.38;8.52;;;;;;;18.27;97.46;95735.13;5030299;28;20017;-80
2021/07/25 06:35:24;;;;;;;12.48;7.70;;;;;;;18.56;95.52;95734.44;5035611;28;20029;-80
2021/07/25 06:37:50;;;;;;;13.48;9.10;;;;;;;18.74;94.67;95722.97;5045303;28;20022;-78
2021/07/25 06:40:16;;;;;;;10.50;7.70;;;;;;;19.08;95.11;95723.41;5047910;28;20121;-76
2021/07/25 06:42:42;;;;;;;12.27;8.13;;;;;;;19.53;93.90;95728.31;5022075;28;20830;-81
2021/07/25 06:45:08;;;;;;;10.25;7.70;;;;;;;19.98;92.21;95728.66;5039217;28;20112;-79
2021/07/25 06:47:34;;;;;;;13.10;8.00;;;;;;;19.19;95.29;95737.84;5046901;28;20265;-81
2021/07/25 06:50:00;;;;;;;10.25;7.55;;;;;;;19.02;98.00;95741.09;5045396;28;20040;-81
2021/07/25 06:52:25;;;;;;;13.57;8.68;;;;;;;19.32;95.04;95740.31;5031134;28;20033;-81
2021/07/25 06:54:51;;;;;;;11.50;7.75;;;;;;;19.68;93.04;95725.25;5029846;28;20041;-81
2021/07/25 06:57:17;;;;;;;14.48;8.15;;;;;;;20.19;90.46;95731.84;5055718;28;20045;-78
2021/07/25 06:59:42;;;;;;;10.45;7.90;;;;;;;20.40;87.75;95723.22;5060931;28;20053;-82
2021/07/25 07:02:08;;;;;;;10.98;7.55;;;;;;;21.27;82.60;95718.88;5058474;28;20064;-81
2021/07/25 07:04:34;;;;;;;11.50;7.32;;;;;;;21.62;78.18;95718.72;5053374;28;20037;-81
2021/07/25 07:06:59;;;;;;;10.02;7.07;;;;;;;21.64;77.69;95712.09;5041079;28;20109;-80
2021/07/25 07:09:25;;;;;;;9.55;6.82;;;;;;;21.57;78.54;95716.78;5035552;28;20044;-79
2021/07/25 07:11:51;;;;;;;9.23;6.65;;;;;;;21.54;78.02;95727.97;5047160;28;20304;-82
2021/07/25 07:14:16;;;;;;;9.80;7.15;;;;;;;22.25;76.78;95712.28;5045638;28;20593;-81
2021/07/25 07:16:42;;;;;;;9.82;6.60;;;;;;;23.37;71.79;95709.41;5008682;28;20034;-82
2021/07/25 07:19:08;;;;;;;10.85;6.57;;;;;;;23.83;69.23;95715.25;5041299;28;20029;-78
2021/07/25 07:21:33;;;;;;;12.75;6.75;;;;;;;23.02;71.92;95705.28;5054829;28;20026;-80
2021/07/25 07:23:59;;;;;;;11.15;6.05;;;;;;;23.10;69.99;95707.50;5033793;28;20037;-80
2021/07/25 07:26:25;;;;;;;9.18;5.65;;;;;;;22.73;72.94;95708.09;5046773;28;20025;-79
2021/07/25 07:28:51;;;;;;;8.18;5.43;;;;;;;22.66;72.69;95709.34;5039823;28;20071;-81
2021/07/25 07:31:16;;;;;;;11.25;6.35;;;;;;;22.13;74.44;95711.53;5041446;28;20040;-80
2021/07/25 07:33:44;;;;;;;7.78;5.63;;;;;;;21.72;76.58;95713.53;5041278;28;20030;-76
2021/07/25 07:36:10;;;;;;;10.00;6.25;;;;;;;21.97;76.83;95723.88;5058570;28;20025;-80
2021/07/25 07:38:36;;;;;;;8.98;6.07;;;;;;;21.46;78.20;95724.84;5051351;28;20026;-79
2021/07/25 07:41:02;;;;;;;9.90;6.53;;;;;;;21.30;79.85;95721.88;5050731;28;20385;-76
2021/07/25 07:43:27;;;;;;;13.10;9.10;;;;;;;21.37;80.66;95727.13;5060113;28;20584;-78
2021/07/25 07:45:53;;;;;;;11.43;7.40;;;;;;;21.63;78.59;95739.09;5055182;28;20009;-77
2021/07/25 07:48:20;;;;;;;8.48;6.43;;;;;;;21.32;80.36;95729.66;5042637;28;20041;-78
2021/07/25 07:50:46;;;;;;;11.88;7.65;;;;;;;21.11;80.60;95731.13;5046955;28;20091;-79
2021/07/25 07:53:12;;;;;;;11.07;7.15;;;;;;;21.46;80.99;95731.00;5033907;28;20033;-80
2021/07/25 07:55:39;;;;;;;9.43;6.55;;;;;;;21.79;78.84;95724.09;5036267;28;20017;-80
2021/07/25 07:58:04;;;;;;;10.27;7.05;;;;;;;21.40;78.79;95730.13;5059826;28;20092;-82
2021/07/25 08:00:30;;;;;;;13.38;8.70;;;;;;;21.91;77.90;95721.34;5059910;28;20052;-78
2021/07/25 08:02:56;;;;;;;9.05;5.97;;;;;;;22.11;77.32;95716.31;5044797;28;20191;-80
2021/07/25 08:05:22;;;;;;;10.45;6.40;;;;;;;22.06;77.69;95710.88;5058395;28;20027;-80
2021/07/25 08:07:48;;;;;;;11.65;7.75;;;;;;;21.79;79.21;95718.75;5069972;28;20060;-77
2021/07/25 08:10:14;;;;;;;10.07;6.65;;;;;;;20.87;80.30;95712.50;5040656;28;20024;-78
2021/07/25 08:12:41;;;;;;;8.63;6.53;;;;;;;20.83;80.04;95711.34;5024439;28;20038;-79
2021/07/25 08:15:09;;;;;;;9.95;6.55;;;;;;;20.61;81.22;95707.66;5032575;28;20022;-82
2021/07/25 08:17:35;;;;;;;9.52;5.93;;;;;;;20.84;81.61;95704.94;5040019;28;20099;-82
2021/07/25 08:20:01;;;;;;;8.82;6.00;;;;;;;21.19;79.70;95702.16;5051962;28;20034;-78
2021/07/25 08:22:27;;;;;;;10.93;6.78;;;;;;;21.79;77.83;95700.81;5046313;28;20120;-79
2021/07/25 08:24:53;;;;;;;10.18;6.95;;;;;;;23.33;72.31;95692.19;5045378;28;20049;-82
2021/07/25 08:27:19;;;;;;;8.30;6.10;;;;;;;25.40;64.66;95679.56;5018371;28;20040;-81
2021/07/25 08:29:44;;;;;;;11.40;6.30;;;;;;;24.59;65.95;95686.25;5040735;28;20608;-82
2021/07/25 08:32:10;;;;;;;8.75;5.95;;;;;;;24.39;68.04;95691.50;5042647;28;20040;-80
2021/07/25 08:34:36;;;;;;;9.43;5.78;;;;;;;24.70;64.95;95682.53;5038888;28;20025;-81
2021/07/25 08:37:02;;;;;;;9.52;5.85;;;;;;;23.90;68.56;95679.06;5060252;28;20033;-82
2021/07/25 08:39:28;;;;;;;10.02;5.50;;;;;;;23.89;70.62;95680.13;5041997;28;20661;-81
2021/07/25 08:42:20;;;;;;;8.70;5.65;;;;;;;24.10;68.14;95675.72;5033508;28;20036;-82
2021/07/25 08:44:54;;;;;;;9.80;5.50;;;;;;;23.84;68.78;95690.81;5026538;28;20041;-82
2021/07/25 08:47:26;;;;;;;9.73;6.35;;;;;;;24.19;67.75;95684.91;5033850;28;20037;-82
2021/07/25 08:50:07;;;;;;;11.63;5.87;;;;;;;23.62;67.21;95692.75;5036287;28;20037;-79
2021/07/25 08:52:35;;;;;;;8.45;5.60;;;;;;;23.46;68.21;95708.69;5031999;28;20092;-80
2021/07/25 08:55:05;;;;;;;7.50;5.07;;;;;;;23.27;69.27;95712.78;5032236;28;20017;-82
2021/07/25 08:57:34;;;;;;;7.97;5.20;;;;;;;23.67;68.25;95711.56;5046252;28;20032;-79
2021/07/25 09:00:00;;;;;;;6.95;5.15;;;;;;;24.08;65.46;95706.56;5051833;28;20029;-81
2021/07/25 09:02:30;;;;;;;6.28;4.55;;;;;;;24.33;64.86;95708.66;5035266;28;20759;-81
2021/07/25 09:04:57;;;;;;;6.75;4.93;;;;;;;24.05;66.24;95709.81;5041566;28;20114;-80
2021/07/25 09:07:29;;;;;;;8.95;5.45;;;;;;;23.35;68.02;95714.22;5051649;28;20029;-82
2021/07/25 09:09:58;;;;;;;8.70;5.20;;;;;;;25.16;61.56;95692.72;5029444;28;20047;-82
2021/07/25 09:12:26;;;;;;;8.15;5.07;;;;;;;25.53;60.49;95703.28;5013738;28;20034;-81
2021/07/25 09:14:55;;;;;;;7.60;5.53;;;;;;;26.45;58.34;95699.78;5041948;28;20057;-82
2021/07/25 09:17:21;;;;;;;7.55;4.95;;;;;;;26.48;57.64;95708.16;5030435;28;20068;-80
2021/07/25 09:20:17;;;;;;;7.30;5.03;;;;;;;25.43;59.71;95716.72;5034345;28;20068;-79
2021/07/25 09:22:49;;;;;;;7.65;5.20;;;;;;;24.28;62.57;95727.41;5046923;28;20033;-83
2021/07/25 09:25:21;;;;;;;7.97;4.53;;;;;;;24.12;64.04;95735.38;5027670;28;20486;-80
2021/07/25 09:28:06;;;;;;;7.50;4.78;;;;;;;23.66;65.18;95734.94;5042834;28;20043;-82
2021/07/25 09:30:33;;;;;;;8.13;5.22;;;;;;;23.77;64.56;95741.22;5029721;28;20521;-82
2021/07/25 09:33:00;;;;;;;10.18;6.00;;;;;;;23.74;65.94;95742.56;5032552;28;20032;-81
2021/07/25 09:35:44;;;;;;;9.07;5.63;;;;;;;23.73;64.74;95735.56;5041884;28;20060;-80
2021/07/25 09:38:11;;;;;;;8.23;4.95;;;;;;;24.31;64.96;95734.97;5016840;28;20037;-82
2021/07/25 09:40:38;;;;;;;9.88;4.65;;;;;;;24.99;60.91;95721.69;5006508;28;20035;-80
2021/07/25 09:43:08;;;;;;;9.48;5.35;;;;;;;26.46;56.32;95701.41;5028886;28;20059;-80
2021/07/25 09:45:57;;;;;;;7.53;4.97;;;;;;;26.62;56.11;95699.50;5023335;28;20034;-82
2021/07/25 09:48:24;;;;;;;9.68;5.13;;;;;;;25.82;57.87;95694.72;5047153;28;20037;-81
2021/07/25 09:50:51;;;;;;;7.25;5.13;;;;;;;24.54;61.46;95688.91;5034477;28;20025;-81
2021/07/25 09:53:18;;;;;;;7.32;5.47;;;;;;;24.66;62.16;95686.03;5032818;28;20063;-82
2021/07/25 09:55:45;;;;;;;7.50;4.65;;;;;;;25.11;60.67;95695.34;5046553;28;20104;-80
2021/07/25 09:58:10;;;;;;;8.50;5.00;;;;;;;24.72;61.06;95689.56;5041740;28;20073;-80
2021/07/25 10:00:46;;;;;;;8.13;5.05;;;;;;;24.49;59.96;95694.28;5034171;28;20057;-80
2021/07/25 10:03:18;;;;;;;7.38;5.00;;;;;;;24.78;61.95;95688.47;5058119;28;20148;-81
2021/07/25 10:05:44;;;;;;;6.90;5.10;;;;;;;24.61;65.23;95699.44;5056076;28;20060;-81
2021/07/25 10:08:19;;;;;;;8.38;5.05;;;;;;;23.74;64.43;95712.22;5057654;28;20567;-81
2021/07/25 10:10:49;;;;;;;7.60;5.22;;;;;;;24.20;67.61;95710.69;5020550;28;20092;-80
2021/07/25 10:13:20;;;;;;;7.32;5.03;;;;;;;24.33;62.84;95703.28;5035010;28;20045;-81
2021/07/25 10:15:58;;;;;;;8.73;4.90;;;;;;;24.99;62.12;95687.50;5052800;28;20204;-81
2021/07/25 10:18:26;;;;;;;8.20;5.28;;;;;;;24.77;60.41;95684.19;5050075;28;20813;-82
2021/07/25 10:20:57;;;;;;;10.30;4.82;;;;;;;25.17;60.11;95692.44;5034648;28;20025;-77
2021/07/25 10:23:29;;;;;;;7.57;5.20;;;;;;;24.72;62.80;95701.13;5037120;28;20068;-81
2021/07/25 10:25:56;;;;;;;6.05;4.53;;;;;;;24.49;63.72;95720.34;5034733;28;20642;-78
2021/07/25 10:28:22;;;;;;;7.55;4.78;;;;;;;24.56;62.59;95721.72;5028522;28;20212;-80
2021/07/25 10:30:52;;;;;;;7.57;5.03;;;;;;;24.75;62.72;95715.91;5045845;28;20114;-78
2021/07/25 10:33:18;;;;;;;12.88;10.48;;;;;;;24.67;61.56;95715.31;5045617;28;20041;-78
2021/07/25 10:35:46;;;;;;;11.73;8.40;;;;;;;23.97;65.52;95721.81;5034967;28;20097;-80
2021/07/25 10:38:12;;;;;;;16.08;6.57;;;;;;;23.72;64.41;95725.09;5040183;28;20030;-79
2021/07/25 10:40:45;;;;;;;6.75;4.15;;;;;;;24.03;63.74;95728.03;5032754;28;20044;-78
2021/07/25 10:43:13;;;;;;;10.18;5.55;;;;;;;23.77;64.01;95733.19;5043893;28;20029;-79
2021/07/25 10:45:39;;;;;;;7.47;4.95;;;;;;;23.78;63.17;95726.75;5043811;28;20082;-79
2021/07/25 10:48:13;;;;;;;8.73;5.55;;;;;;;23.37;64.74;95728.19;5034796;28;20986;-78
2021/07/25 10:50:38;;;;;;;7.90;4.70;;;;;;;23.39;65.47;95729.56;5051862;28;20041;-81
2021/07/25 10:53:04;;;;;;;8.02;5.55;;;;;;;23.44;65.21;95729.63;5033745;28;20506;-80
2021/07/25 10:55:38;;;;;;;7.68;4.60;;;;;;;23.02;66.08;95734.78;5027422;28;20030;-80
2021/07/25 10:58:13;;;;;;;11.32;5.72;;;;;;;22.97;72.09;95727.50;5032546;28;20089;-79
2021/07/25 11:00:51;;;;;;;8.68;5.25;;;;;;;22.88;77.05;95736.19;5040718;28;20053;-80
2021/07/25 11:03:43;;;;;;;7.28;5.32;;;;;;;22.72;76.04;95733.28;5033198;28;20037;-79
2021/07/25 11:06:11;;;;;;;6.97;4.70;;;;;;;22.81;72.57;95737.19;5026593;28;20065;-80
2021/07/25 11:08:43;;;;;;;7.28;4.68;;;;;;;23.08;72.26;95738.34;5028538;28;20033;-81
2021/07/25 11:11:39;;;;;;;;;;;;;;;23.15;71.45;95734.41;5022317;28;20787;-81
2021/07/25 11:14:07;;;;;;;9.73;5.30;;;;;;;23.47;73.02;95728.28;5031233;28;19921;-81
2021/07/25 11:16:32;;;;;;;7.57;4.97;;;;;;;23.54;72.59;95736.97;5041697;28;20036;-80
2021/07/25 11:19:00;;;;;;;6.13;4.57;;;;;;;23.29;72.60;95724.91;5033944;28;20682;-80
2021/07/25 11:21:40;;;;;;;8.25;5.40;;;;;;;23.43;73.34;95724.50;5040416;28;20033;-81
2021/07/25 11:24:18;;;;;;;7.05;5.30;;;;;;;23.95;71.31;95714.03;5036892;28;20617;-80
2021/07/25 11:26:47;;;;;;;7.22;4.68;;;;;;;24.03;70.76;95710.03;5057197;28;20108;-80
2021/07/25 11:29:23;;;;;;;8.40;4.78;;;;;;;24.31;66.29;95703.53;5045311;28;20033;-79